KPHN/PHN METAR and TAF weather

Enter ICAO airport designator
Station Type Date Time Source
KPHN METAR 2018/12/11 19:55 UTC NOAA

KPHN 111955Z AUTO 00000KT 5SM HZ OVC019 M00/M04 A2996 RMK AO2


Station Type Date Time Source
KPHN Decoded METAR 2018/12/11 19:55 UTC NOAA

St. Clair County International, MI, United States (KPHN) 42-55N 082-32W
Dec 11, 2018 - 02:55 PM EST / 2018.12.11 1955 UTC
Wind: Calm:0
Visibility: 5 mile(s):0
Sky conditions: overcast
Weather: haze
Temperature: 32 F (0 C)
Dew Point: 24 F (-4 C)
Relative Humidity: 74%
Pressure (altimeter): 29.96 in. Hg (1014 hPa)
ob: KPHN 111955Z AUTO 00000KT 5SM HZ OVC019 M00/M04 A2996 RMK AO2
cycle: 20

Station Type Date Time Source
KPHN TAF UTC NOAA

Error!


Example: see airport list